Terminal Aerodrome Forecast
Issued by NWS Duluth, MN

Home | Current Version | Previous Version | Text Only | Print | Product List | Glossary On
Versions: 1 2 3 4 5 6 7 8 9 10 11 12 13 14 15 16 17 18 19 20 21 22
850
FTUS43 KDLH 232337
TAFINL
TAF
KINL 232337Z 2400/2424 09007KT P6SM BKN070 OVC100
     FM240500 12009KT P6SM VCSH SCT023 OVC070
      TEMPO 2406/2410 6SM -SHRA BKN023 OVC070
     FM241000 13010KT P6SM OVC011
     FM241600 13011KT P6SM SCT025 BKN150
     FM242200 14012KT P6SM BKN035=

USA.gov is the U.S. government's official web portal to all federal, state and local government web resources and services.